Flight Track Log - Related Links

Times and Time Zones

All times are in EDT time to prevent confusion due to time zone crossing. See the FLG4135 flight status page for this flight to view local times or setup timezone preferences in your user account.

Time Position Orientation Groundspeed Altitude Reporting Facility
EDT Latitude Longitude Course Direction KTS MPH feet Rate Location/Type
Mon 02:22:22 PM 42.1994 -83.3581 90° East 156 180 1,300  Level Cleveland Center
Mon 02:23:36 PM 42.1392 -83.3497 174° South 197 227 4,100 2,356 Climbing Cleveland Center
Mon 02:24:37 PM 42.0944 -83.3031 142° Southeast 244 281 6,600 2,262 Climbing Cleveland Center
Mon 02:25:00 PM 42.2167 -82.7628 90° East  Level FlightAware Approximate
Mon 02:25:38 PM 42.0819 -83.2158 101° East 266 306 8,700  Level Cleveland Center
Mon 02:26:00 PM 42.2167 -82.6150 90° East  Level FlightAware Approximate
Mon 02:26:35 PM 42.0986 -83.1242 76° East 318 366 9,900  Level Cleveland Center
Mon 02:27:00 PM 42.2167 -82.4673 90° East  Level FlightAware Approximate
Mon 02:27:35 PM 42.1219 -83.0019 76° East 339 390 10,700  Level Cleveland Center
Mon 02:28:35 PM 42.1456 -82.8711 76° East 351 404 12,300 1,500 Climbing Cleveland Center
Mon 02:29:35 PM 42.1692 -82.7347 77° East 356 410 13,700 1,550 Climbing Cleveland Center
Mon 02:30:35 PM 42.1925 -82.5953 77° East 368 423 15,400 1,500 Climbing Cleveland Center
Mon 02:31:35 PM 42.1864 -82.4522 93° East 373 429 16,700 1,150 Climbing Cleveland Center
Mon 02:32:35 PM 42.1489 -82.3222 111° Southeast 373 429 17,700 950 Climbing Cleveland Center
Mon 02:33:35 PM 42.0944 -82.1950 120° Southeast 373 429 18,600 1,000 Climbing Cleveland Center
Mon 02:34:35 PM 42.0339 -82.0508 119° Southeast 397 457 19,700 900 Climbing Cleveland Center
Mon 02:35:35 PM 41.9772 -81.9211 120° Southeast 404 465 20,400 700 Climbing Cleveland Center
Mon 02:36:35 PM 41.9183 -81.7858 120° Southeast 415 478 21,100 650 Climbing Cleveland Center
Mon 02:37:35 PM 41.8672 -81.6678 120° Southeast 410 472 21,700 650 Climbing Cleveland Center
Mon 02:38:35 PM 41.8103 -81.5275 119° Southeast 410 472 22,400 700 Climbing Cleveland Center
Mon 02:39:35 PM 41.7486 -81.3931 122° Southeast 421 484 23,100 750 Climbing Cleveland Center
Mon 02:40:35 PM 41.6892 -81.2561 120° Southeast 421 484 23,900 600 Climbing Cleveland Center
Mon 02:41:35 PM 41.6231 -81.1025 120° Southeast 426 490 24,300 400 Climbing Cleveland Center
Mon 02:42:35 PM 41.5611 -80.9633 121° Southeast 426 490 24,700 400 Climbing Cleveland Center
Mon 02:43:35 PM 41.4992 -80.8244 121° Southeast 432 497 25,100 450 Climbing Cleveland Center
Mon 02:44:35 PM 41.4367 -80.6800 120° Southeast 437 503 25,600 500 Climbing Cleveland Center
Mon 02:45:35 PM 41.3742 -80.5417 121° Southeast 442 509 26,100 500 Climbing Cleveland Center
Mon 02:46:35 PM 41.3117 -80.4006 120° Southeast 449 517 26,600 500 Climbing Cleveland Center
Mon 02:47:35 PM 41.2508 -80.2600 120° Southeast 449 517 27,100 200 Climbing Cleveland Center
Mon 02:48:35 PM 41.1836 -80.1169 122° Southeast 449 517 27,000 -350 Descending Cleveland Center
Mon 02:49:35 PM 41.1183 -79.9711 121° Southeast 449 517 26,400 -550 Descending Cleveland Center
Mon 02:50:35 PM 41.0528 -79.8258 121° Southeast 454 522 25,900 -650 Descending Cleveland Center
Mon 02:51:35 PM 40.9872 -79.6864 122° Southeast 454 522 25,100 -950 Descending Cleveland Center
Mon 02:52:35 PM 40.9214 -79.5472 122° Southeast 449 517 24,000 -1,600 Descending Cleveland Center
Mon 02:53:35 PM 40.8681 -79.4272 120° Southeast 444 511 21,900 -1,500 Descending Cleveland Center
Mon 02:54:35 PM 40.8083 -79.2992 122° Southeast 429 494 21,000 -450 Descending Cleveland Center
Mon 02:55:35 PM 40.7506 -79.1825 123° Southeast 402 463 21,000  Level Cleveland Center
Mon 02:56:35 PM 40.6969 -79.0631 121° Southeast 383 441 21,000  Level Cleveland Center
Mon 02:57:35 PM 40.6433 -78.9467 121° Southeast 377 434 21,000  Level Cleveland Center
Mon 02:58:35 PM 40.5833 -78.8306 124° Southeast 377 434 21,000 -650 Level Cleveland Center
Mon 02:59:35 PM 40.5208 -78.7067 124° Southeast 389 448 19,700 -1,300 Descending Cleveland Center
Mon 03:00:35 PM 40.4625 -78.5883 123° Southeast 389 448 18,400 -1,150 Descending Cleveland Center
Mon 03:01:35 PM 40.4142 -78.4561 116° Southeast 389 448 17,400 -1,150 Descending Cleveland Center
Mon 03:02:35 PM 40.3742 -78.3236 112° Southeast 389 448 16,100 -1,345 Descending Cleveland Center
Mon 03:04:29 PM 40.2944 -78.0675 112° Southeast 384 442 13,500 -1,379 Descending New York Center
Mon 03:05:29 PM 40.2606 -77.9386 109° East 384 442 12,100 -1,361 Descending New York Center
Mon 03:06:28 PM 40.2558 -77.8131 93° East 351 404 10,800 -1,261 Descending New York Center
Mon 03:07:28 PM 40.2583 -77.6989 88° East 342 394 9,600 -893 Descending New York Center
Mon 03:08:29 PM 40.2553 -77.6061 92° East 306 352 9,000 -637 Descending New York Center
Mon 03:10:27 PM 40.2569 -77.3942 89° East 287 330 7,700 -674 Descending New York Center
Mon 03:11:27 PM 40.2489 -77.2792 95° East 293 337 7,000 -545 Descending New York Center
Mon 03:12:28 PM 40.2392 -77.1883 98° East 293 337 6,600 -700 Descending New York Center
Mon 03:13:27 PM 40.2136 -77.0828 108° East 282 325 5,600 -807 Descending New York Center
Mon 03:14:27 PM 40.1886 -77.0044 113° Southeast 267 307 5,000 -645 Descending New York Center
Mon 03:15:28 PM 40.1642 -76.9125 109° East 248 285 4,300 -689 Descending New York Center

Login

Don't have an account? Register now (free) for customized features, flight alerts, and more!